Arlington, Kentucky
Current Conditions -  °F | °C
As of 7:35 AM on Sunday 23 Nov 2014 (Local Time) from KCIR Reporting Station
Light Rain Light Rain  
Wind Chill: 58°   Ceiling: 2100
Heat Index: 58°   Visibility: 10mi
Dew Point: 49°   Wind: 8mph
Humidity: 72%   Direction: 120°ESE
Pressure: 29.77"   Gusts: NA
Location:  36.79°N, 89.01°W
Report Text: KCIR 231335Z AUTO 12007KT 10SM -RA OVC021 15/10 A2977 RMK AO2 T01450096
Loading
Personal Weather Stations






























Interactive Weather Map New forecast layout! Learn more

10-Day Weather Forecast

Advertisements
Track Severe Weather on mobile